createdAt,value
2023-04-28T00:02:17.173Z,99175.91
2023-04-28T00:05:10.488Z,99179.38
2023-04-28T00:08:03.310Z,99177.29
2023-04-28T00:10:55.258Z,99177.25
2023-04-28T00:13:47.202Z,99176.21
2023-04-28T00:16:22.221Z,99178.84
2023-04-28T00:19:14.305Z,99178.49
2023-04-28T00:22:06.314Z,99180.71
2023-04-28T00:24:58.338Z,99179.48
2023-04-28T00:27:50.365Z,99182.08
2023-04-28T00:30:42.385Z,99184.34
2023-04-28T00:33:34.326Z,99182.57
2023-04-28T00:36:27.277Z,99181.49
2023-04-28T00:39:19.691Z,99182.36
2023-04-28T00:42:02.331Z,99179.08
2023-04-28T00:44:54.324Z,99179.23
2023-04-28T00:47:46.582Z,99176.45
2023-04-28T00:50:39.422Z,99175.23
2023-04-28T00:53:31.806Z,99174.17
2023-04-28T00:56:24.078Z,99175.20
2023-04-28T00:59:16.082Z,99175.85
2023-04-28T01:02:08.446Z,99178.45
2023-04-28T01:05:01.306Z,99180.89
2023-04-28T01:07:53.347Z,99181.92
2023-04-28T01:10:47.520Z,99182.45
2023-04-28T01:13:39.519Z,99181.23
2023-04-28T01:16:32.638Z,99185.20
2023-04-28T01:19:25.142Z,99186.55
2023-04-28T01:22:17.115Z,99183.58
2023-04-28T01:25:09.838Z,99180.07
2023-04-28T01:28:02.207Z,99182.50
2023-04-28T01:30:55.487Z,99180.05
2023-04-28T01:33:47.473Z,99177.58
2023-04-28T01:36:39.508Z,99177.04
2023-04-28T01:39:31.530Z,99176.16
2023-04-28T01:42:23.629Z,99173.87
2023-04-28T01:45:15.807Z,99175.58
2023-04-28T01:48:08.319Z,99174.88
2023-04-28T01:51:00.456Z,99169.30
2023-04-28T01:53:52.371Z,99172.58
2023-04-28T01:56:44.350Z,99175.83
2023-04-28T01:59:36.825Z,99177.88
2023-04-28T02:02:28.929Z,99178.73
2023-04-28T02:05:11.075Z,99179.77
2023-04-28T02:08:03.163Z,99178.38
2023-04-28T02:10:55.083Z,99181.64
2023-04-28T02:13:35.940Z,99179.54
2023-04-28T02:16:27.998Z,99174.48
2023-04-28T02:19:20.337Z,99174.46
2023-04-28T02:22:12.371Z,99171.11
2023-04-28T02:25:04.550Z,99167.94
2023-04-28T02:27:57.355Z,99166.70
2023-04-28T02:30:49.351Z,99160.95
2023-04-28T02:33:42.294Z,99160.73
2023-04-28T02:36:17.039Z,99161.94
2023-04-28T02:39:09.000Z,99161.75
2023-04-28T02:42:00.991Z,99159.48
2023-04-28T02:44:52.956Z,99157.15
2023-04-28T02:47:44.950Z,99155.02
2023-04-28T02:50:37.168Z,99154.11
2023-04-28T02:53:29.452Z,99154.56
2023-04-28T02:56:21.600Z,99150.98
2023-04-28T02:58:56.751Z,99154.74
2023-04-28T03:01:48.973Z,99157.68
2023-04-28T03:04:41.131Z,99151.77
2023-04-28T03:07:33.460Z,99156.60
2023-04-28T03:10:25.555Z,99149.77
2023-04-28T03:13:17.542Z,99147.34
2023-04-28T03:16:10.272Z,99143.64
2023-04-28T03:19:02.353Z,99144.95
2023-04-28T03:21:54.364Z,99149.60
2023-04-28T03:24:46.335Z,99143.67
2023-04-28T03:27:21.378Z,99147.59
2023-04-28T03:30:14.549Z,99147.57
2023-04-28T03:33:07.355Z,99149.42
2023-04-28T03:35:59.456Z,99147.67
2023-04-28T03:38:51.456Z,99144.60
2023-04-28T03:41:43.431Z,99144.05
2023-04-28T03:44:35.448Z,99148.10
2023-04-28T03:47:28.246Z,99146.74
2023-04-28T03:50:20.423Z,99148.14
2023-04-28T03:53:12.462Z,99148.33
2023-04-28T03:55:53.410Z,99146.27
2023-04-28T03:58:45.401Z,99140.23
2023-04-28T04:01:20.101Z,99144.38
2023-04-28T04:04:12.353Z,99146.80
2023-04-28T04:07:05.225Z,99152.01
2023-04-28T04:09:57.382Z,99152.04
2023-04-28T04:12:49.375Z,99158.13
2023-04-28T04:15:41.488Z,99155.20
2023-04-28T04:18:33.451Z,99160.06
2023-04-28T04:21:25.513Z,99154.05
2023-04-28T04:24:17.749Z,99159.30
2023-04-28T04:27:09.904Z,99158.34
2023-04-28T04:30:02.110Z,99162.58
2023-04-28T04:32:54.264Z,99163.37
2023-04-28T04:35:46.336Z,99165.38
2023-04-28T04:38:38.312Z,99167.05
2023-04-28T04:41:30.344Z,99167.52
2023-04-28T04:44:22.298Z,99167.62
2023-04-28T04:47:14.237Z,99170.18
2023-04-28T04:50:06.990Z,99167.00
2023-04-28T04:52:59.144Z,99164.34
2023-04-28T04:55:51.317Z,99166.89
2023-04-28T04:58:34.678Z,99169.42
2023-04-28T05:01:15.268Z,99173.34
2023-04-28T05:04:07.764Z,99175.04
2023-04-28T05:07:00.083Z,99176.87
2023-04-28T05:09:52.184Z,99175.05
2023-04-28T05:12:46.181Z,99173.74
2023-04-28T05:15:40.405Z,99174.06
2023-04-28T05:18:32.452Z,99170.71
2023-04-28T05:21:11.670Z,99175.02
2023-04-28T05:24:03.783Z,99171.60
2023-04-28T05:26:41.065Z,99168.77
2023-04-28T05:29:15.990Z,99172.30
2023-04-28T05:32:08.354Z,99171.77
2023-04-28T05:35:00.359Z,99168.85
2023-04-28T05:37:52.406Z,99165.44
2023-04-28T05:40:27.513Z,99159.38
2023-04-28T05:43:19.563Z,99158.80
2023-04-28T05:46:28.399Z,99159.38
2023-04-28T05:49:22.383Z,99156.20
2023-04-28T05:52:14.445Z,99149.97
2023-04-28T05:55:07.309Z,99152.41
2023-04-28T05:57:59.853Z,99148.96
2023-04-28T06:00:51.840Z,99148.61
2023-04-28T06:03:45.098Z,99145.52
2023-04-28T06:06:37.350Z,99147.17
2023-04-28T06:09:29.858Z,99146.77
2023-04-28T06:12:01.812Z,99150.23
2023-04-28T06:14:55.437Z,99150.42
2023-04-28T06:17:31.305Z,99147.84
2023-04-28T06:20:23.540Z,99147.07
2023-04-28T06:23:15.495Z,99146.77
2023-04-28T06:26:07.738Z,99148.27
2023-04-28T06:28:44.579Z,99144.77
2023-04-28T06:31:27.942Z,99147.27
2023-04-28T06:34:19.993Z,99138.30
2023-04-28T06:37:11.964Z,99136.27
2023-04-28T06:40:04.112Z,99135.23
2023-04-28T06:42:56.399Z,99132.38
2023-04-28T06:45:33.920Z,99133.84
2023-04-28T06:48:26.425Z,99132.92
2023-04-28T06:51:18.508Z,99129.36
2023-04-28T06:54:11.627Z,99127.74
2023-04-28T06:57:03.776Z,99122.63
2023-04-28T06:59:43.840Z,99124.30
2023-04-28T07:02:36.929Z,99123.14
2023-04-28T07:05:30.120Z,99120.33
2023-04-28T07:08:22.553Z,99117.23
2023-04-28T07:11:15.715Z,99114.38
2023-04-28T07:14:08.246Z,99108.75
2023-04-28T07:17:00.361Z,99114.52
2023-04-28T07:19:52.426Z,99112.02
2023-04-28T07:22:44.368Z,99114.16
2023-04-28T07:25:36.556Z,99110.05
2023-04-28T07:28:29.073Z,99106.05
2023-04-28T07:31:21.850Z,99107.42
2023-04-28T07:34:14.066Z,99104.52
2023-04-28T07:37:06.868Z,99098.42
2023-04-28T07:40:00.037Z,99098.65
2023-04-28T07:42:52.467Z,99100.40
2023-04-28T07:45:48.883Z,99095.89
2023-04-28T07:48:42.079Z,99091.10
2023-04-28T07:51:34.101Z,99094.19
2023-04-28T07:54:26.647Z,99090.92
2023-04-28T07:57:08.267Z,99095.10
2023-04-28T07:59:49.160Z,99096.80
2023-04-28T08:02:41.504Z,99096.28
2023-04-28T08:05:33.708Z,99092.53
2023-04-28T08:08:35.041Z,99091.13
2023-04-28T08:11:26.970Z,99089.25
2023-04-28T08:14:19.224Z,99084.70
2023-04-28T08:17:11.390Z,99082.38
2023-04-28T08:19:46.193Z,99080.48
2023-04-28T08:22:38.205Z,99072.54
2023-04-28T08:25:30.379Z,99074.39
2023-04-28T08:28:22.542Z,99069.33
2023-04-28T08:31:14.693Z,99068.49
2023-04-28T08:34:06.802Z,99064.02
2023-04-28T08:36:58.892Z,99059.70
2023-04-28T08:39:50.835Z,99056.23
2023-04-28T08:42:45.757Z,99048.27
2023-04-28T08:45:21.069Z,99049.16
2023-04-28T08:48:21.114Z,99050.66
2023-04-28T08:51:17.736Z,99048.66
2023-04-28T08:54:29.844Z,99040.84
2023-04-28T08:57:18.532Z,99034.34
2023-04-28T09:00:12.325Z,99037.40
2023-04-28T09:02:54.546Z,99036.11
2023-04-28T09:05:47.119Z,99027.33
2023-04-28T09:08:39.277Z,99026.13
2023-04-28T09:11:16.630Z,99024.02
2023-04-28T09:14:15.999Z,99020.48
2023-04-28T09:17:13.303Z,99016.27
2023-04-28T09:20:26.100Z,99012.96
2023-04-28T09:23:20.244Z,99015.87
2023-04-28T09:26:12.218Z,99012.91
2023-04-28T09:29:15.582Z,99014.80
2023-04-28T09:32:18.132Z,99010.66
2023-04-28T09:35:11.173Z,99003.41
2023-04-28T09:38:03.350Z,99007.95
2023-04-28T09:41:00.505Z,99002.08
2023-04-28T09:43:52.996Z,98997.17
2023-04-28T09:46:33.910Z,98997.30
2023-04-28T09:49:25.941Z,98992.35
2023-04-28T09:52:16.225Z,98992.15
2023-04-28T09:55:10.196Z,98985.50
2023-04-28T09:58:06.995Z,98979.35
2023-04-28T10:01:00.277Z,98975.27
2023-04-28T10:03:54.113Z,98969.75
2023-04-28T10:06:46.734Z,98967.30
2023-04-28T10:09:39.224Z,98960.68
2023-04-28T10:12:11.158Z,98954.48
2023-04-28T10:15:03.278Z,98952.77
2023-04-28T10:17:56.506Z,98949.18
2023-04-28T10:20:38.608Z,98943.80
2023-04-28T10:24:07.750Z,98940.84
2023-04-28T10:27:11.249Z,98939.45
2023-04-28T10:29:43.204Z,98936.66
2023-04-28T10:32:35.275Z,98931.48
2023-04-28T10:36:36.316Z,98932.90
2023-04-28T10:39:13.246Z,98930.38
2023-04-28T10:42:05.539Z,98931.73
2023-04-28T10:44:57.551Z,98922.71
2023-04-28T10:48:06.382Z,98918.11
2023-04-28T10:51:28.210Z,98909.20
2023-04-28T10:54:21.824Z,98901.52
2023-04-28T10:57:23.641Z,98903.63
2023-04-28T11:00:31.500Z,98901.88
2023-04-28T11:03:06.958Z,98894.52
2023-04-28T11:06:26.805Z,98892.23
2023-04-28T11:09:52.541Z,98882.31
2023-04-28T11:13:15.201Z,98875.71
2023-04-28T11:16:07.812Z,98875.11
2023-04-28T11:19:05.435Z,98872.23
2023-04-28T11:21:59.067Z,98872.27
2023-04-28T11:24:40.474Z,98865.05
2023-04-28T11:27:27.858Z,98855.68
2023-04-28T11:30:28.546Z,98856.45
2023-04-28T11:33:21.044Z,98856.71
2023-04-28T11:36:03.228Z,98852.27
2023-04-28T11:38:56.104Z,98841.96
2023-04-28T11:41:48.259Z,98841.42
2023-04-28T11:44:40.448Z,98840.58
2023-04-28T11:47:34.322Z,98844.83
2023-04-28T11:50:08.173Z,98841.68
2023-04-28T11:53:00.232Z,98838.75
2023-04-28T11:55:32.032Z,98830.50
2023-04-28T11:58:23.844Z,98834.95
2023-04-28T12:01:16.315Z,98831.45
2023-04-28T12:04:08.772Z,98831.05
2023-04-28T12:07:05.832Z,98827.91
2023-04-28T12:10:15.768Z,98816.55
2023-04-28T12:13:19.152Z,98812.80
2023-04-28T12:16:11.646Z,98814.48
2023-04-28T12:19:07.916Z,98816.70
2023-04-28T12:22:02.330Z,98814.27
2023-04-28T12:24:36.687Z,98806.75
2023-04-28T12:27:29.210Z,98798.73
2023-04-28T12:30:29.577Z,98802.70
2023-04-28T12:33:29.595Z,98793.71
2023-04-28T12:36:22.152Z,98791.91
2023-04-28T12:39:19.901Z,98782.69
2023-04-28T12:42:12.178Z,98779.60
2023-04-28T12:45:04.551Z,98770.36
2023-04-28T12:47:57.002Z,98763.17
2023-04-28T12:50:48.968Z,98766.31
2023-04-28T12:53:40.935Z,98764.39
2023-04-28T12:56:33.639Z,98757.86
2023-04-28T12:59:25.848Z,98753.41
2023-04-28T13:02:06.740Z,98753.83
2023-04-28T13:04:58.872Z,98749.04
2023-04-28T13:07:52.910Z,98745.65
2023-04-28T13:10:45.632Z,98744.45
2023-04-28T13:13:26.727Z,98743.04
2023-04-28T13:16:18.839Z,98739.33
2023-04-28T13:19:04.420Z,98734.73
2023-04-28T13:21:56.406Z,98734.37
2023-04-28T13:24:48.463Z,98729.20
2023-04-28T13:27:42.654Z,98725.16
2023-04-28T13:30:35.573Z,98722.44
2023-04-28T13:33:31.237Z,98717.53
2023-04-28T13:36:23.486Z,98715.78
2023-04-28T13:39:15.583Z,98712.73
2023-04-28T13:42:08.020Z,98707.56
2023-04-28T13:44:59.975Z,98702.30
2023-04-28T13:47:52.185Z,98696.05
2023-04-28T13:50:44.143Z,98690.83
2023-04-28T13:53:38.031Z,98692.69
2023-04-28T13:56:31.103Z,98693.85
2023-04-28T13:59:23.199Z,98686.61
2023-04-28T14:02:15.230Z,98686.08
2023-04-28T14:05:08.390Z,98681.30
2023-04-28T14:08:01.682Z,98677.52
2023-04-28T14:10:54.044Z,98673.85
2023-04-28T14:13:46.006Z,98672.42
2023-04-28T14:16:38.161Z,98671.30
2023-04-28T14:19:30.239Z,98668.04
2023-04-28T14:22:22.233Z,98670.33
2023-04-28T14:25:14.291Z,98666.39
2023-04-28T14:28:06.433Z,98662.34
2023-04-28T14:30:59.338Z,98656.88
2023-04-28T14:33:51.381Z,98657.23
2023-04-28T14:36:43.342Z,98661.05
2023-04-28T14:39:35.850Z,98656.27
2023-04-28T14:42:11.227Z,98652.02
2023-04-28T14:45:04.232Z,98649.27
2023-04-28T14:47:57.047Z,98646.63
2023-04-28T14:50:49.084Z,98645.37
2023-04-28T14:53:42.028Z,98647.59
2023-04-28T14:56:18.947Z,98645.73
2023-04-28T14:59:11.616Z,98652.01
2023-04-28T15:02:04.089Z,98648.05
2023-04-28T15:04:56.454Z,98645.25
2023-04-28T15:07:48.514Z,98646.67
2023-04-28T15:10:41.862Z,98646.66
2023-04-28T15:13:33.807Z,98651.90
2023-04-28T15:16:25.844Z,98651.79
2023-04-28T15:19:17.860Z,98650.70
2023-04-28T15:22:09.916Z,98642.61
2023-04-28T15:25:02.349Z,98637.05
2023-04-28T15:27:54.448Z,98630.67
2023-04-28T15:30:46.471Z,98634.98
2023-04-28T15:33:38.880Z,98631.38
2023-04-28T15:36:30.976Z,98629.13
2023-04-28T15:39:11.352Z,98626.69
2023-04-28T15:42:04.988Z,98626.48
2023-04-28T15:44:57.568Z,98618.05
2023-04-28T15:47:51.841Z,98618.46
2023-04-28T15:50:43.922Z,98613.45
2023-04-28T15:53:26.907Z,98609.17
2023-04-28T15:56:19.557Z,98604.96
2023-04-28T15:59:14.835Z,98606.99
2023-04-28T16:02:07.159Z,98601.29
2023-04-28T16:04:59.662Z,98601.25
2023-04-28T16:07:37.915Z,98601.21
2023-04-28T16:10:15.048Z,98590.98
2023-04-28T16:12:55.832Z,98582.80
2023-04-28T16:15:49.572Z,98586.11
2023-04-28T16:18:41.795Z,98580.60
2023-04-28T16:21:34.129Z,98581.38
2023-04-28T16:24:09.151Z,98576.43
2023-04-28T16:27:01.700Z,98577.59
2023-04-28T16:29:53.675Z,98579.45
2023-04-28T16:32:36.364Z,98575.34
2023-04-28T16:35:15.266Z,98572.77
2023-04-28T16:38:08.754Z,98577.50
2023-04-28T16:41:00.801Z,98574.17
2023-04-28T16:43:52.925Z,98569.92
2023-04-28T16:46:27.886Z,98569.62
2023-04-28T16:49:19.909Z,98567.83
2023-04-28T16:52:11.854Z,98565.44
2023-04-28T16:55:04.193Z,98558.45
2023-04-28T16:57:56.268Z,98556.58
2023-04-28T17:00:48.248Z,98554.23
2023-04-28T17:03:42.219Z,98556.97
2023-04-28T17:06:34.423Z,98553.33
2023-04-28T17:09:27.487Z,98557.25
2023-04-28T17:12:21.350Z,98555.48
2023-04-28T17:15:18.155Z,98552.55
2023-04-28T17:18:10.172Z,98552.38
2023-04-28T17:21:02.133Z,98549.05
2023-04-28T17:23:54.092Z,98547.67
2023-04-28T17:26:46.002Z,98546.51
2023-04-28T17:29:38.277Z,98551.95
2023-04-28T17:32:32.802Z,98556.64
2023-04-28T17:35:25.817Z,98557.02
2023-04-28T17:38:17.952Z,98553.85
2023-04-28T17:41:09.954Z,98557.42
2023-04-28T17:44:02.371Z,98558.38
2023-04-28T17:46:54.475Z,98555.56
2023-04-28T17:49:46.555Z,98555.08
2023-04-28T17:52:38.904Z,98557.02
2023-04-28T17:55:16.127Z,98554.55
2023-04-28T17:58:08.166Z,98555.61
2023-04-28T18:01:04.219Z,98559.02
2023-04-28T18:03:58.533Z,98561.80
2023-04-28T18:06:50.537Z,98564.53
2023-04-28T18:09:26.728Z,98566.89
2023-04-28T18:12:18.708Z,98574.45
2023-04-28T18:15:12.570Z,98580.26
2023-04-28T18:18:04.635Z,98584.54
2023-04-28T18:21:02.282Z,98586.16
2023-04-28T18:23:54.334Z,98587.59
2023-04-28T18:26:46.301Z,98592.91
2023-04-28T18:29:38.321Z,98595.42
2023-04-28T18:32:30.998Z,98596.89
2023-04-28T18:35:23.090Z,98597.48
2023-04-28T18:38:15.281Z,98597.41
2023-04-28T18:41:16.149Z,98595.66
2023-04-28T18:44:08.540Z,98596.60
2023-04-28T18:47:00.984Z,98606.35
2023-04-28T18:49:53.013Z,98609.39
2023-04-28T18:52:44.966Z,98610.27
2023-04-28T18:55:37.021Z,98606.31
2023-04-28T18:58:30.042Z,98607.79
2023-04-28T19:01:22.235Z,98608.20
2023-04-28T19:04:14.536Z,98613.31
2023-04-28T19:07:06.799Z,98612.55
2023-04-28T19:09:58.815Z,98615.27
2023-04-28T19:12:50.778Z,98613.96
2023-04-28T19:15:42.797Z,98614.40
2023-04-28T19:18:35.114Z,98617.83
2023-04-28T19:21:27.552Z,98620.77
2023-04-28T19:24:19.574Z,98623.78
2023-04-28T19:27:11.538Z,98623.91
2023-04-28T19:30:04.735Z,98618.02
2023-04-28T19:32:56.833Z,98618.03
2023-04-28T19:35:48.969Z,98616.95
2023-04-28T19:38:41.240Z,98614.48
2023-04-28T19:41:33.322Z,98617.27
2023-04-28T19:44:25.362Z,98617.29
2023-04-28T19:47:37.861Z,98611.77
2023-04-28T19:50:29.907Z,98612.95
2023-04-28T19:53:21.980Z,98609.67
2023-04-28T19:56:13.894Z,98608.05
2023-04-28T19:59:05.882Z,98609.44
2023-04-28T20:01:57.997Z,98608.09
2023-04-28T20:04:50.891Z,98604.40
2023-04-28T20:07:43.613Z,98607.31
2023-04-28T20:10:35.645Z,98598.34
2023-04-28T20:13:28.465Z,98598.52
2023-04-28T20:16:20.994Z,98594.40
2023-04-28T20:19:13.038Z,98596.94
2023-04-28T20:21:47.974Z,98595.03
2023-04-28T20:24:40.143Z,98593.48
2023-04-28T20:27:32.059Z,98594.34
2023-04-28T20:30:24.342Z,98590.81
2023-04-28T20:33:17.699Z,98593.44
2023-04-28T20:36:10.167Z,98594.80
2023-04-28T20:39:02.137Z,98593.67
2023-04-28T20:41:54.111Z,98596.98
2023-04-28T20:44:46.519Z,98597.23
2023-04-28T20:47:39.045Z,98593.54
2023-04-28T20:50:33.146Z,98594.39
2023-04-28T20:53:25.477Z,98591.40
2023-04-28T20:56:17.417Z,98583.55
2023-04-28T20:59:09.357Z,98583.59
2023-04-28T21:02:01.477Z,98583.77
2023-04-28T21:04:53.963Z,98582.06
2023-04-28T21:07:45.976Z,98579.83
2023-04-28T21:10:38.144Z,98578.13
2023-04-28T21:13:30.173Z,98579.38
2023-04-28T21:16:04.959Z,98577.65
2023-04-28T21:18:57.543Z,98576.45
2023-04-28T21:21:39.031Z,98576.63
2023-04-28T21:24:31.076Z,98575.42
2023-04-28T21:27:23.045Z,98574.52
2023-04-28T21:30:15.449Z,98578.02
2023-04-28T21:33:07.554Z,98576.23
2023-04-28T21:35:59.868Z,98571.83
2023-04-28T21:38:51.822Z,98565.77
2023-04-28T21:41:43.800Z,98567.98
2023-04-28T21:44:35.906Z,98564.58
2023-04-28T21:47:28.238Z,98561.70
2023-04-28T21:50:20.236Z,98559.56
2023-04-28T21:53:12.216Z,98558.25
2023-04-28T21:56:05.631Z,98555.52
2023-04-28T21:58:57.615Z,98557.36
2023-04-28T22:01:50.448Z,98557.98
2023-04-28T22:04:43.393Z,98559.30
2023-04-28T22:07:35.489Z,98559.20
2023-04-28T22:10:27.473Z,98557.67
2023-04-28T22:13:19.395Z,98559.50
2023-04-28T22:16:13.491Z,98561.76
2023-04-28T22:19:05.562Z,98564.48
2023-04-28T22:21:57.907Z,98564.91
2023-04-28T22:24:50.001Z,98560.91
2023-04-28T22:27:42.066Z,98561.34
2023-04-28T22:30:34.755Z,98558.80
2023-04-28T22:33:26.871Z,98562.73
2023-04-28T22:36:18.907Z,98557.58
2023-04-28T22:39:10.901Z,98551.20
2023-04-28T22:42:03.650Z,98557.72
2023-04-28T22:44:45.656Z,98554.14
2023-04-28T22:47:38.358Z,98552.33
2023-04-28T22:50:31.342Z,98557.20
2023-04-28T22:53:23.364Z,98551.69
2023-04-28T22:56:15.484Z,98550.75
2023-04-28T22:58:57.646Z,98547.67
2023-04-28T23:01:49.650Z,98551.77
2023-04-28T23:04:42.002Z,98550.11
2023-04-28T23:07:33.999Z,98552.98
2023-04-28T23:10:26.122Z,98553.72
2023-04-28T23:13:18.135Z,98554.64
2023-04-28T23:16:10.872Z,98551.35
2023-04-28T23:19:03.270Z,98544.89
2023-04-28T23:21:55.382Z,98539.14
2023-04-28T23:24:47.610Z,98538.63
2023-04-28T23:27:39.507Z,98537.75
2023-04-28T23:30:31.531Z,98535.67
2023-04-28T23:33:08.764Z,98532.55
2023-04-28T23:36:00.724Z,98531.00
2023-04-28T23:38:52.811Z,98530.48
2023-04-28T23:41:44.850Z,98525.16
2023-04-28T23:44:36.856Z,98519.78
2023-04-28T23:47:29.468Z,98514.40
2023-04-28T23:50:21.642Z,98512.67
2023-04-28T23:53:13.960Z,98509.20
2023-04-28T23:56:06.510Z,98509.89
2023-04-28T23:58:58.477Z,98507.98
